Dunlap, IL (61525)

9:28 AM CST on January 24, 2017 (GMT -0600)
Devonshire | | Change Station
Active Advisory: Flood Warning

Elev 758 ft 40.83 °N, 89.62 °W | Updated 2 hours ago

Overcast
Overcast
34.3 °F
Feels Like 34 °F
N
0.5
Wind Variable Wind from SW
Gusts 2.5 mph

Today
High -- | Low -- °F
--% Chance of Precip.
Yesterday
High -- | Low -- °F
Precip. -- in
Pressure 29.93 in
Visibility 5.0 miles
Clouds Overcast 1500 ft
Windchill 34 °F
Dew Point 31 °F
Humidity 88%
Rainfall 0.00 in
Snow Depth Not available.
7:15 AM 5:06 PM
Waning Crescent, 11% visible
METAR KPIA 241454Z 00000KT 5SM BR OVC015 02/01 A2991 RMK AO2 SLP134 T00220006 53005
Pressure 29.93 in
Visibility 5.0 miles
Clouds Overcast 1500 ft
Windchill 34 °F
Dew Point 31 °F
Humidity 88%
Rainfall 0.00 in
Snow Depth Not available.
7:15 AM 5:06 PM
Waning Crescent, 11% visible
METAR KPIA 241454Z 00000KT 5SM BR OVC015 02/01 A2991 RMK AO2 SLP134 T00220006 53005

Get Your Daily Forecast Email!

Thanks for signing up!

Be on the lookout for a verification email in your inbox.

You'll start receiving the daily forecast at 8 AM.

×

10-Day Weather Forecast

Almanac

Astronomy

Jan. 24, 2017 Rise Set
Actual Time
Civil Twilight
Nautical Twilight
Astronomical Twilight
Moon
Length of Visible Light
Length of Day
Tomorrow will be .
, % of the Moon is Illuminated

Today's Extremes

State Highs State Lows

Community

WunderPhotos

Upload Photos

1,962,540 photos uploaded!

WunderBlog® & News

Nearby

Air Quality

  Air Quality AQ Index Pollutant
Not available.

Snow Depth

Station Depth Elevation

Earthquake Activity

City Distance Mag. Time & Date
Minimum magnitude displayed is 2.5.

Coastal Water Temperatures

Place Temperature

Stations

Nearby Weather Stations

Station Location Temp. Windchill Dew Point Humidity Wind Precip. Elev Updated Type
                   

Watches & Warnings

Flood Warning
Issued: 8:57 PM CST Jan. 23, 2017 – National Weather Service

The Flood Warning continues for
the Illinois River near Peoria.
* From Tuesday evening until late Thursday night.
* At 845 PM Monday the stage was 17.6 feet.
* Flood stage is 18.0 feet.
* Minor flooding is forecast.
* Forecast... rise above flood stage by tomorrow evening and continue
to rise to near 18.1 feet by Wednesday morning.The river will fall
below flood stage by Thursday evening.
* Impact... at 18.0 feet... some flooding begins to bottomland not
protected by levees.



                  Fld observed forecast 6am
location stg stg day time Tue Wed Thu

Illinois River
Peoria 18 17.6 Mon 9 PM 17.8 18.1 18.1



Lat... Lon 4093 8952 4093 8941 4062 8957 4047 8980
      4053 8988 4068 8965